Time;durP1;ratioP1;P1;durP2;ratioP2;P2;SDS_P1;SDS_P2;PMS_P1;PMS_P2;Temp;Humidity;BMP_temperature;BMP_pressure;BME280_temperature;BME280_humidity;BME280_pressure;Samples;Min_cycle;Max_cycle;Signal;HPM_P1;HPM_P2
2021/11/14 00:01:29;;;;;;;81.83;21.10;;;7.30;99.90;;;;;;5071964;28;20549;-68
2021/11/14 00:03:56;;;;;;;87.67;23.87;;;7.30;99.90;;;;;;5072153;28;20536;-67
2021/11/14 00:06:23;;;;;;;86.07;22.47;;;7.30;99.90;;;;;;5069057;28;20548;-67
2021/11/14 00:08:51;;;;;;;88.07;21.33;;;7.40;99.90;;;;;;5072090;28;20456;-67
2021/11/14 00:11:20;;;;;;;88.90;23.40;;;7.40;99.90;;;;;;5071889;28;20472;-67
2021/11/14 00:13:48;;;;;;;89.50;28.03;;;7.40;99.90;;;;;;5071890;28;20456;-67
2021/11/14 00:16:19;;;;;;;87.53;22.80;;;7.40;99.90;;;;;;5071580;28;20536;-68
2021/11/14 00:18:46;;;;;;;82.83;21.63;;;7.40;99.90;;;;;;5072154;28;20457;-68
2021/11/14 00:21:14;;;;;;;86.27;24.07;;;7.50;99.90;;;;;;5071787;28;21065;-67
2021/11/14 00:23:42;;;;;;;82.93;21.63;;;7.50;99.90;;;;;;5072195;28;20445;-67
2021/11/14 00:26:09;;;;;;;82.07;20.97;;;7.50;99.90;;;;;;5071533;28;20837;-66
2021/11/14 00:28:39;;;;;;;80.47;19.50;;;7.50;99.90;;;;;;5071768;28;20561;-68
2021/11/14 00:31:06;;;;;;;81.90;19.63;;;7.50;99.90;;;;;;5071641;28;20499;-67
2021/11/14 00:33:34;;;;;;;80.37;18.77;;;7.50;99.90;;;;;;5071824;28;21009;-68
2021/11/14 00:36:01;;;;;;;80.80;20.30;;;7.60;99.90;;;;;;5071426;28;20836;-67
2021/11/14 00:38:28;;;;;;;84.20;22.33;;;7.60;99.90;;;;;;5071497;28;20457;-68
2021/11/14 00:40:55;;;;;;;79.90;19.47;;;7.50;99.90;;;;;;5069067;28;20473;-67
2021/11/14 00:43:22;;;;;;;80.97;19.77;;;7.60;99.90;;;;;;5071591;28;20457;-68
2021/11/14 00:45:49;;;;;;;79.17;19.80;;;7.60;99.90;;;;;;5071433;28;20460;-67
2021/11/14 00:48:17;;;;;;;80.67;20.50;;;7.60;99.90;;;;;;5071525;28;20535;-68
2021/11/14 00:50:47;;;;;;;78.23;18.67;;;7.60;99.90;;;;;;5071472;28;20476;-68
2021/11/14 00:53:16;;;;;;;83.63;21.23;;;7.60;99.90;;;;;;5071649;28;20913;-67
2021/11/14 00:55:43;;;;;;;84.30;22.10;;;7.60;99.90;;;;;;5071669;28;20536;-68
2021/11/14 00:58:10;;;;;;;83.40;20.67;;;7.60;99.90;;;;;;5071771;28;20532;-68
2021/11/14 01:00:37;;;;;;;85.70;20.70;;;7.60;99.90;;;;;;5071583;28;20912;-67
2021/11/14 01:03:06;;;;;;;76.87;19.10;;;7.60;99.90;;;;;;5071361;28;20945;-66
2021/11/14 01:05:35;;;;;;;80.07;19.77;;;7.60;99.90;;;;;;5071102;28;20453;-66
2021/11/14 01:08:05;;;;;;;76.53;17.20;;;7.60;99.90;;;;;;5071183;28;20888;-66
2021/11/14 01:10:35;;;;;;;77.27;18.23;;;7.60;99.90;;;;;;5071816;28;20488;-66
2021/11/14 01:13:03;;;;;;;78.10;18.53;;;7.70;99.90;;;;;;5055209;28;20491;-67
2021/11/14 01:15:31;;;;;;;80.87;18.97;;;7.70;99.90;;;;;;5050933;28;20545;-65
2021/11/14 01:17:58;;;;;;;81.27;18.90;;;7.60;99.90;;;;;;5051370;28;20454;-67
2021/11/14 01:20:27;;;;;;;77.90;18.93;;;7.60;99.90;;;;;;5051102;28;20571;-67
2021/11/14 01:22:55;;;;;;;79.50;18.50;;;7.70;99.90;;;;;;5051210;28;20449;-66
2021/11/14 01:25:24;;;;;;;80.33;18.40;;;7.70;99.90;;;;;;5051341;28;20445;-65
2021/11/14 01:27:51;;;;;;;76.47;17.40;;;7.70;99.90;;;;;;5051199;28;20446;-67
2021/11/14 01:30:22;;;;;;;78.80;16.57;;;7.70;99.90;;;;;;5051061;28;20485;-67
2021/11/14 01:32:50;;;;;;;80.03;16.80;;;7.70;99.90;;;;;;5051125;28;20941;-66
2021/11/14 01:35:18;;;;;;;77.27;17.10;;;7.70;99.90;;;;;;5050879;28;21013;-66
2021/11/14 01:37:46;;;;;;;78.23;18.03;;;7.70;99.90;;;;;;5051175;28;20545;-66
2021/11/14 01:40:16;;;;;;;78.57;17.83;;;7.70;99.90;;;;;;5050982;28;20938;-66
2021/11/14 01:42:45;;;;;;;79.37;16.57;;;7.70;99.90;;;;;;5053662;28;20465;-67
2021/11/14 01:45:13;;;;;;;79.27;16.83;;;7.70;99.90;;;;;;5053052;28;20885;-67
2021/11/14 01:47:41;;;;;;;78.10;17.20;;;7.70;99.90;;;;;;5054316;28;20963;-67
2021/11/14 01:50:11;;;;;;;78.50;18.20;;;7.70;99.90;;;;;;5055152;28;20454;-66
2021/11/14 01:52:38;;;;;;;78.50;15.80;;;7.70;99.90;;;;;;5054870;28;20480;-67
2021/11/14 01:55:06;;;;;;;76.57;16.53;;;7.70;99.90;;;;;;5054678;28;20533;-66
2021/11/14 01:57:33;;;;;;;78.63;17.17;;;7.70;99.90;;;;;;5054498;28;20451;-66
2021/11/14 02:00:01;;;;;;;77.50;15.90;;;7.70;99.90;;;;;;5054508;28;20446;-66
2021/11/14 02:02:28;;;;;;;77.77;16.17;;;7.70;99.90;;;;;;5054702;28;20904;-67
2021/11/14 02:04:55;;;;;;;74.63;15.30;;;7.70;99.90;;;;;;5054189;28;20451;-67
2021/11/14 02:07:22;;;;;;;78.83;17.60;;;7.70;99.90;;;;;;5054420;28;20447;-67
2021/11/14 02:09:49;;;;;;;80.53;18.33;;;7.70;99.90;;;;;;5054503;28;20535;-67
2021/11/14 02:12:16;;;;;;;73.37;15.30;;;7.70;99.90;;;;;;5054194;28;21016;-67
2021/11/14 02:14:43;;;;;;;74.27;13.70;;;7.80;99.90;;;;;;5053899;28;20981;-67
2021/11/14 02:17:11;;;;;;;78.90;17.37;;;7.80;99.90;;;;;;5068000;28;20461;-66
2021/11/14 02:19:38;;;;;;;77.90;15.60;;;7.80;99.90;;;;;;5074533;28;20533;-67
2021/11/14 02:22:07;;;;;;;76.13;15.77;;;7.80;99.90;;;;;;5073938;28;20460;-66
2021/11/14 02:24:34;;;;;;;75.90;16.87;;;7.80;99.90;;;;;;5074227;28;20214;-67
2021/11/14 02:27:01;;;;;;;73.30;14.80;;;7.80;99.90;;;;;;5073473;28;20451;-67
2021/11/14 02:29:28;;;;;;;73.27;15.83;;;7.80;99.90;;;;;;5074354;28;20455;-65
2021/11/14 02:31:55;;;;;;;75.07;15.30;;;7.80;99.90;;;;;;5073730;28;20473;-66
2021/11/14 02:34:22;;;;;;;76.77;15.80;;;7.80;99.90;;;;;;5074120;28;20548;-68
2021/11/14 02:36:49;;;;;;;75.67;15.60;;;7.80;99.90;;;;;;5073583;28;20450;-67
2021/11/14 02:39:18;;;;;;;79.00;16.77;;;7.90;99.90;;;;;;5073866;28;21017;-67
2021/11/14 02:41:45;;;;;;;76.07;16.00;;;7.80;99.90;;;;;;5073418;28;20535;-67
2021/11/14 02:44:12;;;;;;;76.20;15.73;;;7.80;99.90;;;;;;5073669;28;20484;-67
2021/11/14 02:46:39;;;;;;;79.17;16.10;;;7.80;99.90;;;;;;5073521;28;20452;-66
2021/11/14 02:49:07;;;;;;;72.30;14.87;;;7.80;99.90;;;;;;5069540;28;20542;-66
2021/11/14 02:51:35;;;;;;;76.20;17.57;;;7.90;99.90;;;;;;5073539;28;20818;-66
2021/11/14 02:54:04;;;;;;;78.80;17.57;;;7.90;99.90;;;;;;5072943;28;20481;-67
2021/11/14 02:56:33;;;;;;;76.70;18.07;;;7.90;99.90;;;;;;5073342;28;20532;-67
2021/11/14 02:59:01;;;;;;;79.57;17.33;;;7.90;99.90;;;;;;5073626;28;20459;-67
2021/11/14 03:01:31;;;;;;;76.30;16.47;;;7.80;99.90;;;;;;5073409;28;20474;-67
2021/11/14 03:03:58;;;;;;;75.83;15.37;;;7.90;99.90;;;;;;5073386;28;20444;-67
2021/11/14 03:06:29;;;;;;;76.67;16.37;;;7.90;99.90;;;;;;5072740;28;20451;-66
2021/11/14 03:08:57;;;;;;;75.70;14.43;;;7.90;99.90;;;;;;5073640;28;20889;-67
2021/11/14 03:11:24;;;;;;;74.83;14.17;;;7.90;99.90;;;;;;5073272;28;20473;-67
2021/11/14 03:13:52;;;;;;;73.37;15.53;;;7.90;99.90;;;;;;5073522;28;20490;-67
2021/11/14 03:16:22;;;;;;;73.93;16.13;;;7.90;99.90;;;;;;5072809;28;20445;-65
2021/11/14 03:18:49;;;;;;;74.93;15.33;;;7.90;99.90;;;;;;5072864;28;20865;-67
2021/11/14 03:21:16;;;;;;;75.87;15.47;;;7.90;99.90;;;;;;5070403;28;20903;-67
2021/11/14 03:23:43;;;;;;;77.40;16.03;;;7.90;99.90;;;;;;5073151;28;20527;-67
2021/11/14 03:26:10;;;;;;;74.33;14.93;;;7.90;99.90;;;;;;5072680;28;20871;-66
2021/11/14 03:28:36;;;;;;;77.20;15.77;;;7.90;99.90;;;;;;5072816;28;20449;-67
2021/11/14 03:31:05;;;;;;;73.37;14.70;;;7.90;99.90;;;;;;5072761;28;20476;-67
2021/11/14 03:33:32;;;;;;;75.67;15.07;;;7.90;99.90;;;;;;5072981;28;20508;-66
2021/11/14 03:36:03;;;;;;;74.17;14.53;;;7.90;99.90;;;;;;5072485;28;20446;-67
2021/11/14 03:38:34;;;;;;;73.17;13.97;;;7.90;99.90;;;;;;5072738;28;20446;-67
2021/11/14 03:41:02;;;;;;;71.97;13.53;;;7.90;99.90;;;;;;5072671;28;20469;-67
2021/11/14 03:43:31;;;;;;;75.47;16.00;;;7.90;99.90;;;;;;5072537;28;20452;-66
2021/11/14 03:45:58;;;;;;;75.10;15.40;;;7.90;99.90;;;;;;5072029;28;20532;-67
2021/11/14 03:48:27;;;;;;;71.50;13.53;;;7.90;99.90;;;;;;5072418;28;20447;-67
2021/11/14 03:50:54;;;;;;;79.57;15.97;;;7.90;99.90;;;;;;5072155;28;20544;-67
2021/11/14 03:53:22;;;;;;;77.03;15.60;;;7.90;99.90;;;;;;5069685;28;20486;-66
2021/11/14 03:55:50;;;;;;;72.67;15.10;;;7.90;99.90;;;;;;5072089;28;20445;-67
2021/11/14 03:58:17;;;;;;;75.93;15.90;;;7.90;99.90;;;;;;5072254;28;21002;-67
2021/11/14 04:00:48;;;;;;;73.33;15.60;;;7.80;99.90;;;;;;5072240;28;20509;-66
2021/11/14 04:03:15;;;;;;;76.07;15.77;;;7.80;99.90;;;;;;5072295;28;20531;-67
2021/11/14 04:05:44;;;;;;;74.90;15.70;;;7.90;99.90;;;;;;5071243;28;20454;-67
2021/11/14 04:08:15;;;;;;;72.83;14.77;;;7.90;99.90;;;;;;5072169;28;20456;-66
2021/11/14 04:10:43;;;;;;;74.47;15.67;;;7.90;99.90;;;;;;5072034;28;20469;-67
2021/11/14 04:13:10;;;;;;;73.57;14.70;;;7.90;99.90;;;;;;5071824;28;20581;-67
2021/11/14 04:15:38;;;;;;;74.30;14.97;;;7.90;99.90;;;;;;5071624;28;20488;-66
2021/11/14 04:18:06;;;;;;;75.60;15.73;;;7.90;99.90;;;;;;5072006;28;20891;-66
2021/11/14 04:20:34;;;;;;;75.27;15.90;;;7.90;99.90;;;;;;5071894;28;20470;-67
2021/11/14 04:23:03;;;;;;;77.70;15.50;;;7.80;99.90;;;;;;5071721;28;20462;-67
2021/11/14 04:25:30;;;;;;;79.87;17.10;;;7.80;99.90;;;;;;5069247;28;20471;-66
2021/11/14 04:27:57;;;;;;;101.20;22.10;;;7.80;99.90;;;;;;5071738;28;20816;-67
2021/11/14 04:30:25;;;;;;;102.40;24.40;;;7.80;99.90;;;;;;5071729;28;21015;-67
2021/11/14 04:32:52;;;;;;;91.53;19.93;;;7.80;99.90;;;;;;5071682;28;20994;-66
2021/11/14 04:35:21;;;;;;;83.20;17.97;;;7.70;99.90;;;;;;5071696;28;20552;-65
2021/11/14 04:37:51;;;;;;;78.97;15.97;;;7.70;99.90;;;;;;5071951;28;20938;-67
2021/11/14 04:40:21;;;;;;;78.37;17.00;;;7.70;99.90;;;;;;5071511;28;20937;-66
2021/11/14 04:42:48;;;;;;;80.00;17.43;;;7.60;99.90;;;;;;5071850;28;20453;-66
2021/11/14 04:45:16;;;;;;;83.77;17.27;;;7.60;99.90;;;;;;5071624;28;20821;-67
2021/11/14 04:47:43;;;;;;;81.93;16.73;;;7.60;99.90;;;;;;5071409;28;20539;-66
2021/11/14 04:50:13;;;;;;;76.00;15.43;;;7.60;99.90;;;;;;5071435;28;20460;-67
2021/11/14 04:52:40;;;;;;;73.57;15.37;;;7.60;99.90;;;;;;5071332;28;20446;-67
2021/11/14 04:55:08;;;;;;;74.73;14.97;;;7.60;99.90;;;;;;5068736;28;20545;-65
2021/11/14 04:57:36;;;;;;;74.50;15.90;;;7.60;99.90;;;;;;5071431;28;20536;-67
2021/11/14 05:00:06;;;;;;;74.97;15.27;;;7.60;99.90;;;;;;5071420;28;20449;-66
2021/11/14 05:02:33;;;;;;;76.27;14.93;;;7.60;99.90;;;;;;5071471;28;20471;-67
2021/11/14 05:05:01;;;;;;;77.27;17.33;;;7.60;99.90;;;;;;5071266;28;20453;-66
2021/11/14 05:07:28;;;;;;;76.53;17.23;;;7.60;99.90;;;;;;5071358;28;20453;-66
2021/11/14 05:09:55;;;;;;;73.20;13.73;;;7.60;99.90;;;;;;5071284;28;20452;-67
2021/11/14 05:12:22;;;;;;;76.47;15.57;;;7.60;99.90;;;;;;5071277;28;21003;-67
2021/11/14 05:14:50;;;;;;;78.67;16.33;;;7.60;99.90;;;;;;5071077;28;21012;-67
2021/11/14 05:17:17;;;;;;;77.27;16.87;;;7.70;99.90;;;;;;5075007;28;20530;-66
2021/11/14 05:19:43;;;;;;;78.10;15.50;;;7.70;99.90;;;;;;5075279;28;20468;-66
2021/11/14 05:22:10;;;;;;;73.20;15.80;;;7.70;99.90;;;;;;5075499;28;20464;-66
2021/11/14 05:24:37;;;;;;;78.50;15.10;;;7.70;99.90;;;;;;5075470;28;20452;-67
2021/11/14 05:27:04;;;;;;;76.43;16.17;;;7.70;99.90;;;;;;5072665;28;20449;-66
2021/11/14 05:29:32;;;;;;;72.97;14.03;;;7.70;99.90;;;;;;5075211;28;20451;-66
2021/11/14 05:32:01;;;;;;;75.80;14.57;;;7.70;99.90;;;;;;5075071;28;20480;-66
2021/11/14 05:34:27;;;;;;;76.53;15.80;;;7.70;99.90;;;;;;5074858;28;21053;-66
2021/11/14 05:36:54;;;;;;;74.30;15.40;;;7.70;99.90;;;;;;5074940;28;21020;-67
2021/11/14 05:39:21;;;;;;;71.40;12.77;;;7.70;99.90;;;;;;5075019;28;21018;-66
2021/11/14 05:41:48;;;;;;;73.20;14.40;;;7.70;99.90;;;;;;5074917;28;20571;-66
2021/11/14 05:44:15;;;;;;;73.80;13.90;;;7.70;99.90;;;;;;5074715;28;20861;-67
2021/11/14 05:46:42;;;;;;;72.67;14.70;;;7.70;99.90;;;;;;5074332;28;20940;-65
2021/11/14 05:49:10;;;;;;;77.50;15.63;;;7.60;99.90;;;;;;5074899;28;20540;-66
2021/11/14 05:51:38;;;;;;;75.97;16.73;;;7.60;99.90;;;;;;5074811;28;20527;-67
2021/11/14 05:54:05;;;;;;;75.97;14.80;;;7.70;99.90;;;;;;5074646;28;20914;-67
2021/11/14 05:56:32;;;;;;;77.03;15.80;;;7.70;99.90;;;;;;5074211;28;20484;-67
2021/11/14 05:59:06;;;;;;;75.87;14.73;;;7.60;99.90;;;;;;5072246;28;20541;-67
2021/11/14 06:01:37;;;;;;;76.20;15.20;;;7.70;99.90;;;;;;5074367;28;20476;-66
2021/11/14 06:04:08;;;;;;;114.27;45.73;;;7.70;99.90;;;;;;5074643;28;20552;-66
2021/11/14 06:06:36;;;;;;;124.70;51.20;;;7.70;99.90;;;;;;5074286;28;21013;-67
2021/11/14 06:09:03;;;;;;;97.43;32.43;;;7.60;99.90;;;;;;5074402;28;20529;-66
2021/11/14 06:11:30;;;;;;;93.77;28.50;;;7.60;99.90;;;;;;5074310;28;20470;-66
2021/11/14 06:13:57;;;;;;;87.77;25.80;;;7.60;99.90;;;;;;5074327;28;20572;-67
2021/11/14 06:16:24;;;;;;;97.27;33.87;;;7.60;99.90;;;;;;5074047;28;20840;-67
2021/11/14 06:18:51;;;;;;;101.20;38.80;;;7.60;99.90;;;;;;5074346;28;20445;-66
2021/11/14 06:21:18;;;;;;;99.50;38.77;;;7.60;99.90;;;;;;5074209;28;20466;-66
2021/11/14 06:23:46;;;;;;;85.73;27.63;;;7.60;99.90;;;;;;5074103;28;20476;-66
2021/11/14 06:26:13;;;;;;;83.67;24.97;;;7.60;99.90;;;;;;5073503;28;20451;-66
2021/11/14 06:28:40;;;;;;;87.17;23.83;;;7.60;99.90;;;;;;5073268;28;20449;-67
2021/11/14 06:31:07;;;;;;;88.80;26.47;;;7.60;99.90;;;;;;5071759;28;20500;-66
2021/11/14 06:33:34;;;;;;;82.87;23.00;;;7.60;99.90;;;;;;5073889;28;20481;-67
2021/11/14 06:36:01;;;;;;;78.97;19.30;;;7.70;99.90;;;;;;5073595;28;20494;-66
2021/11/14 06:38:28;;;;;;;74.60;15.80;;;7.70;99.90;;;;;;5073855;28;20456;-66
2021/11/14 06:40:56;;;;;;;74.00;15.23;;;7.60;99.90;;;;;;5073540;28;20472;-66
2021/11/14 06:43:23;;;;;;;74.50;13.97;;;7.60;99.90;;;;;;5073628;28;20463;-67
2021/11/14 06:45:50;;;;;;;74.87;15.57;;;7.60;99.90;;;;;;5073346;28;20458;-66
2021/11/14 06:48:17;;;;;;;74.87;14.07;;;7.60;99.90;;;;;;5073656;28;20483;-66
2021/11/14 06:50:43;;;;;;;72.70;14.43;;;7.60;99.90;;;;;;5073506;28;20469;-65
2021/11/14 06:53:10;;;;;;;73.67;15.60;;;7.60;99.90;;;;;;5073967;28;20452;-66
2021/11/14 06:55:37;;;;;;;75.73;16.03;;;7.60;99.90;;;;;;5073530;28;20536;-66
2021/11/14 06:58:06;;;;;;;72.97;14.83;;;7.60;99.90;;;;;;5073402;28;20457;-66
2021/11/14 07:00:33;;;;;;;74.47;15.60;;;7.60;99.90;;;;;;5073086;28;20475;-66
2021/11/14 07:03:00;;;;;;;72.93;13.90;;;7.60;99.90;;;;;;5057474;28;20838;-66
2021/11/14 07:05:27;;;;;;;87.97;23.63;;;7.60;99.90;;;;;;5053041;28;20443;-67
2021/11/14 07:07:54;;;;;;;86.97;22.77;;;7.60;99.90;;;;;;5053115;28;20486;-67
2021/11/14 07:10:24;;;;;;;79.97;17.93;;;7.60;99.90;;;;;;5053177;28;20458;-66
2021/11/14 07:12:51;;;;;;;80.67;18.40;;;7.70;99.90;;;;;;5053047;28;20545;-67
2021/11/14 07:15:19;;;;;;;85.10;21.70;;;7.70;99.90;;;;;;5053107;28;20496;-66
2021/11/14 07:17:46;;;;;;;81.17;18.27;;;7.70;99.90;;;;;;5052876;28;20481;-66
2021/11/14 07:20:16;;;;;;;89.87;21.80;;;7.80;99.90;;;;;;5053010;28;20534;-66
2021/11/14 07:22:44;;;;;;;82.87;19.23;;;7.80;99.90;;;;;;5053284;28;21048;-66
2021/11/14 07:25:14;;;;;;;76.03;16.13;;;7.80;99.90;;;;;;5053023;28;20453;-66
2021/11/14 07:27:42;;;;;;;78.17;17.23;;;7.90;99.90;;;;;;5052669;28;20458;-66
2021/11/14 07:30:10;;;;;;;84.50;18.60;;;8.00;99.90;;;;;;5052641;28;20941;-67
2021/11/14 07:32:40;;;;;;;89.70;24.03;;;8.10;99.90;;;;;;5052555;28;20458;-66
2021/11/14 07:35:08;;;;;;;92.17;26.27;;;8.20;99.90;;;;;;5051052;28;20896;-67
2021/11/14 07:37:35;;;;;;;91.77;27.40;;;8.20;99.90;;;;;;5053199;28;20876;-66
2021/11/14 07:40:03;;;;;;;83.17;20.77;;;8.30;99.90;;;;;;5053115;28;20454;-67
2021/11/14 07:42:30;;;;;;;79.63;21.53;;;8.30;99.90;;;;;;5052736;28;20535;-66
2021/11/14 07:44:57;;;;;;;80.70;20.50;;;8.40;99.90;;;;;;5052874;28;20901;-66
2021/11/14 07:47:24;;;;;;;78.87;19.37;;;8.40;99.90;;;;;;5052887;28;20485;-65
2021/11/14 07:49:52;;;;;;;79.30;19.30;;;8.40;99.90;;;;;;5052807;28;20539;-67
2021/11/14 07:52:20;;;;;;;76.90;17.97;;;8.50;99.90;;;;;;5052505;28;20517;-67
2021/11/14 07:54:47;;;;;;;80.40;18.70;;;8.60;99.90;;;;;;5052432;28;20486;-66
2021/11/14 07:57:14;;;;;;;76.63;17.27;;;8.60;99.90;;;;;;5052165;28;20461;-66
2021/11/14 07:59:41;;;;;;;79.63;17.93;;;8.60;99.90;;;;;;5052358;28;20761;-67
2021/11/14 08:02:09;;;;;;;79.53;18.43;;;8.60;99.90;;;;;;5052118;28;20463;-67
2021/11/14 08:04:36;;;;;;;80.57;17.20;;;8.70;99.90;;;;;;5052125;28;20480;-66
2021/11/14 08:07:05;;;;;;;76.57;16.33;;;8.70;99.90;;;;;;5068788;28;20459;-66
2021/11/14 08:09:31;;;;;;;78.97;16.33;;;8.70;99.90;;;;;;5072116;28;20446;-65
2021/11/14 08:11:58;;;;;;;74.37;16.57;;;8.60;99.90;;;;;;5072137;28;20561;-66
2021/11/14 08:14:25;;;;;;;75.83;16.10;;;8.70;99.90;;;;;;5072140;28;20578;-67
2021/11/14 08:16:52;;;;;;;77.80;19.27;;;8.70;99.90;;;;;;5071757;28;20533;-66
2021/11/14 08:19:19;;;;;;;75.40;16.43;;;8.90;99.90;;;;;;5072179;28;20452;-66
2021/11/14 08:21:46;;;;;;;74.03;16.40;;;9.00;99.90;;;;;;5071979;28;20470;-66
2021/11/14 08:24:14;;;;;;;78.47;16.53;;;9.00;99.90;;;;;;5072307;28;20526;-66
2021/11/14 08:26:41;;;;;;;79.33;16.63;;;9.00;99.90;;;;;;5071432;28;20456;-66
2021/11/14 08:29:08;;;;;;;77.40;17.37;;;9.10;99.90;;;;;;5071692;28;20445;-66
2021/11/14 08:31:35;;;;;;;74.70;16.57;;;9.10;99.90;;;;;;5071643;28;20458;-66
2021/11/14 08:34:02;;;;;;;74.07;16.70;;;9.00;99.90;;;;;;5071910;28;20760;-66
2021/11/14 08:36:28;;;;;;;77.93;17.83;;;9.00;99.90;;;;;;5067986;28;20476;-66
2021/11/14 08:38:56;;;;;;;78.30;17.67;;;8.90;99.90;;;;;;5051713;28;20457;-66
2021/11/14 08:41:25;;;;;;;74.47;16.03;;;8.90;99.90;;;;;;5051380;28;20514;-65
2021/11/14 08:43:52;;;;;;;74.13;16.17;;;8.90;99.90;;;;;;5051528;28;20451;-66
2021/11/14 08:46:19;;;;;;;74.80;16.20;;;9.00;99.90;;;;;;5051419;28;20449;-66
2021/11/14 08:48:46;;;;;;;78.07;17.20;;;9.00;99.90;;;;;;5051742;28;20578;-66
2021/11/14 08:51:14;;;;;;;75.80;15.50;;;9.00;99.90;;;;;;5051138;28;20471;-66
2021/11/14 08:53:41;;;;;;;76.17;15.90;;;9.10;99.90;;;;;;5051437;28;20650;-65
2021/11/14 08:56:08;;;;;;;78.43;16.30;;;9.20;99.90;;;;;;5050979;28;20848;-66
2021/11/14 08:58:37;;;;;;;76.67;16.57;;;9.30;99.90;;;;;;5051276;28;20543;-67
2021/11/14 09:01:06;;;;;;;77.17;16.43;;;9.30;99.90;;;;;;5051293;28;20558;-66
2021/11/14 09:03:33;;;;;;;76.67;15.43;;;9.50;99.90;;;;;;5051455;28;20571;-65
2021/11/14 09:06:00;;;;;;;75.87;16.03;;;9.70;99.90;;;;;;5051021;28;20448;-66
2021/11/14 09:08:27;;;;;;;74.47;15.67;;;10.00;99.90;;;;;;5049570;28;20465;-67
2021/11/14 09:10:54;;;;;;;75.50;15.80;;;10.10;99.90;;;;;;5050928;28;20479;-66
2021/11/14 09:13:21;;;;;;;73.57;15.93;;;10.40;99.90;;;;;;5050509;28;20466;-65
2021/11/14 09:15:51;;;;;;;79.40;17.20;;;10.50;99.90;;;;;;5049278;28;20563;-66
2021/11/14 09:18:18;;;;;;;77.03;15.93;;;10.50;99.90;;;;;;5049528;28;20928;-65
2021/11/14 09:20:46;;;;;;;75.73;15.57;;;10.50;99.90;;;;;;5049426;28;20547;-66
2021/11/14 09:23:14;;;;;;;75.13;15.37;;;10.50;99.90;;;;;;5049539;28;20452;-66
2021/11/14 09:25:40;;;;;;;72.03;14.50;;;10.50;99.90;;;;;;5049391;28;20544;-66
2021/11/14 09:28:08;;;;;;;75.67;14.30;;;10.40;99.90;;;;;;5050179;28;20458;-66
2021/11/14 09:30:35;;;;;;;71.47;13.83;;;10.50;99.90;;;;;;5051198;28;21000;-66
2021/11/14 09:33:05;;;;;;;74.77;15.33;;;10.50;99.90;;;;;;5051216;28;20448;-66
2021/11/14 09:35:32;;;;;;;72.33;13.30;;;10.50;99.90;;;;;;5050833;28;20645;-66
2021/11/14 09:38:00;;;;;;;74.20;14.60;;;10.40;99.90;;;;;;5051044;28;20843;-66
2021/11/14 09:40:26;;;;;;;72.90;14.67;;;10.40;99.90;;;;;;5049147;28;20478;-65
2021/11/14 09:42:53;;;;;;;75.33;15.37;;;10.30;99.90;;;;;;5051078;28;20474;-66
2021/11/14 09:45:20;;;;;;;74.70;14.20;;;10.20;99.90;;;;;;5051074;28;20535;-64
2021/11/14 09:47:47;;;;;;;74.73;13.30;;;10.30;99.90;;;;;;5050919;28;20448;-66
2021/11/14 09:50:16;;;;;;;77.33;14.47;;;10.30;99.90;;;;;;5050936;28;20447;-66
2021/11/14 09:52:43;;;;;;;76.00;16.07;;;10.20;99.90;;;;;;5050855;28;20448;-65
2021/11/14 09:55:11;;;;;;;75.97;14.27;;;10.30;99.90;;;;;;5051026;28;20488;-66
2021/11/14 09:57:38;;;;;;;73.40;14.37;;;10.30;99.90;;;;;;5050854;28;20451;-66
2021/11/14 10:00:07;;;;;;;75.67;14.73;;;10.40;99.90;;;;;;5051439;28;20448;-66
2021/11/14 10:02:34;;;;;;;73.10;14.43;;;10.60;99.90;;;;;;5051970;28;20996;-66
2021/11/14 10:05:01;;;;;;;74.73;14.30;;;10.80;99.90;;;;;;5054386;28;20518;-65
2021/11/14 10:07:29;;;;;;;72.17;13.00;;;11.00;99.90;;;;;;5054242;28;20452;-66
2021/11/14 10:09:56;;;;;;;74.80;15.30;;;11.20;99.90;;;;;;5054376;28;20466;-66
2021/11/14 10:12:25;;;;;;;73.10;14.10;;;11.30;99.90;;;;;;5052548;28;20514;-65
2021/11/14 10:15:06;;;;;;;75.17;15.27;;;11.50;99.90;;;;;;5054374;28;21100;-66
2021/11/14 10:17:33;;;;;;;77.33;15.17;;;11.60;98.60;;;;;;5054030;28;20462;-66
2021/11/14 10:20:12;;;;;;;73.23;13.37;;;11.50;94.10;;;;;;5054575;28;20820;-66
2021/11/14 10:22:43;;;;;;;74.50;14.40;;;11.50;94.50;;;;;;5054455;28;20530;-65
2021/11/14 10:25:12;;;;;;;70.77;12.77;;;11.50;94.10;;;;;;5054237;28;20891;-66
2021/11/14 10:27:39;;;;;;;73.00;13.10;;;11.60;94.60;;;;;;5053998;28;20801;-65
2021/11/14 10:30:09;;;;;;;76.27;14.50;;;11.70;94.40;;;;;;5053882;28;20483;-66
2021/11/14 10:32:36;;;;;;;75.80;14.83;;;11.80;94.00;;;;;;5053985;28;20496;-66
2021/11/14 10:35:04;;;;;;;74.23;13.70;;;11.90;93.50;;;;;;5053920;28;20483;-66
2021/11/14 10:37:33;;;;;;;70.73;13.10;;;12.00;91.50;;;;;;5053616;28;20451;-66
2021/11/14 10:40:04;;;;;;;69.90;12.83;;;12.00;90.40;;;;;;5053895;28;20444;-66
2021/11/14 10:42:33;;;;;;;73.17;13.30;;;11.90;88.50;;;;;;5056932;28;20465;-66
2021/11/14 10:45:02;;;;;;;72.57;12.63;;;12.00;89.80;;;;;;5073893;28;20454;-66
2021/11/14 10:47:30;;;;;;;69.53;11.00;;;12.10;89.00;;;;;;5073733;28;20452;-66
2021/11/14 10:49:59;;;;;;;71.93;12.50;;;11.90;86.90;;;;;;5073822;28;20501;-66
2021/11/14 10:52:27;;;;;;;70.87;12.30;;;11.60;86.90;;;;;;5073627;28;20574;-66
2021/11/14 10:54:57;;;;;;;72.37;12.23;;;11.40;87.20;;;;;;5073464;28;20485;-65
2021/11/14 10:57:30;;;;;;;73.30;12.00;;;11.50;88.30;;;;;;5073554;28;20449;-66
2021/11/14 10:59:58;;;;;;;70.90;11.90;;;11.50;88.30;;;;;;5073771;28;20526;-65
2021/11/14 11:02:26;;;;;;;74.93;13.70;;;11.40;88.40;;;;;;5073589;28;20467;-66
2021/11/14 11:04:55;;;;;;;71.17;12.00;;;11.30;87.90;;;;;;5073456;28;20537;-66
2021/11/14 11:07:23;;;;;;;74.17;13.07;;;11.30;86.80;;;;;;5073188;28;20542;-65
2021/11/14 11:09:55;;;;;;;71.07;12.00;;;11.30;87.10;;;;;;5073733;28;20447;-66
2021/11/14 11:12:25;;;;;;;75.10;12.37;;;11.30;87.80;;;;;;5073505;28;20467;-66
2021/11/14 11:14:59;;;;;;;75.10;12.00;;;11.30;87.70;;;;;;5071705;28;20486;-65
2021/11/14 11:17:27;;;;;;;72.47;12.60;;;11.30;87.00;;;;;;5073080;28;20446;-65
2021/11/14 11:19:56;;;;;;;72.37;12.77;;;11.30;87.40;;;;;;5073160;28;20813;-66
2021/11/14 11:22:27;;;;;;;72.67;12.87;;;11.30;87.10;;;;;;5073037;28;20469;-65
2021/11/14 11:24:55;;;;;;;70.73;11.73;;;11.30;87.80;;;;;;5073143;28;20535;-66
2021/11/14 11:27:22;;;;;;;73.37;13.00;;;11.30;86.50;;;;;;5072766;28;20447;-66
2021/11/14 11:29:50;;;;;;;75.37;12.50;;;11.40;87.20;;;;;;5073036;28;20497;-66
2021/11/14 11:32:19;;;;;;;80.30;14.93;;;11.70;87.40;;;;;;5072922;28;20498;-66
2021/11/14 11:34:46;;;;;;;78.70;13.90;;;11.90;83.80;;;;;;5072557;28;20450;-66
2021/11/14 11:37:15;;;;;;;75.37;13.80;;;12.00;81.80;;;;;;5072449;28;20951;-64
2021/11/14 11:39:43;;;;;;;79.27;15.20;;;12.20;83.00;;;;;;5072888;28;20447;-65
2021/11/14 11:42:11;;;;;;;78.60;15.50;;;12.40;81.80;;;;;;5072734;28;20924;-66
2021/11/14 11:44:38;;;;;;;74.50;13.93;;;12.60;80.20;;;;;;5072621;28;20483;-65
2021/11/14 11:47:09;;;;;;;75.00;13.13;;;12.80;79.30;;;;;;5072267;28;20443;-66
2021/11/14 11:49:43;;;;;;;77.00;14.50;;;12.90;72.90;;;;;;5072794;28;20534;-65
2021/11/14 11:52:17;;;;;;;87.67;29.57;;;13.00;73.90;;;;;;5072612;28;20465;-66
2021/11/14 11:54:47;;;;;;;73.77;13.40;;;13.00;72.90;;;;;;5072537;28;20546;-66
2021/11/14 11:57:16;;;;;;;71.93;13.10;;;12.90;72.90;;;;;;5072187;28;20439;-66
2021/11/14 11:59:45;;;;;;;71.97;11.70;;;12.80;72.50;;;;;;5072242;28;20449;-66
2021/11/14 12:02:15;;;;;;;69.20;10.67;;;12.50;73.20;;;;;;5072509;28;20459;-65
2021/11/14 12:04:45;;;;;;;69.73;10.83;;;12.80;72.80;;;;;;5072353;28;20577;-66
2021/11/14 12:07:13;;;;;;;73.57;13.53;;;13.10;71.70;;;;;;5071948;28;20526;-66
2021/11/14 12:09:43;;;;;;;69.50;10.80;;;13.30;71.50;;;;;;5072256;28;20546;-66
2021/11/14 12:12:22;;;;;;;74.53;11.80;;;13.00;71.50;;;;;;5072067;28;20489;-66
2021/11/14 12:15:10;;;;;;;70.03;10.97;;;12.90;71.50;;;;;;5072248;28;20439;-66
2021/11/14 12:17:38;;;;;;;75.77;13.63;;;12.80;71.30;;;;;;5071822;28;20546;-66
2021/11/14 12:20:12;;;;;;;74.97;11.80;;;12.90;71.50;;;;;;5071887;28;20450;-66
2021/11/14 12:22:43;;;;;;;74.87;12.87;;;12.90;71.80;;;;;;5071974;28;20796;-66
2021/11/14 12:25:19;;;;;;;76.40;14.80;;;12.90;72.00;;;;;;5071252;28;20530;-66
2021/11/14 12:27:57;;;;;;;74.03;13.23;;;13.00;71.50;;;;;;5071967;28;20466;-67
2021/11/14 12:30:24;;;;;;;76.70;12.67;;;12.90;71.40;;;;;;5071946;28;20494;-66
2021/11/14 12:32:54;;;;;;;79.10;13.57;;;12.90;71.50;;;;;;5071804;28;20501;-65
2021/11/14 12:35:28;;;;;;;78.90;13.50;;;12.90;71.50;;;;;;5071772;28;20490;-65
2021/11/14 12:37:57;;;;;;;76.77;14.40;;;12.90;71.80;;;;;;5071791;28;20457;-65